Terminal Aerodrome Forecast
Issued by NWS Sterling, VA

Current Version | Previous Version | Text Only | Print | Product List | Glossary On
Versions: 1 2 3 4 5 6 7 8 9 10 11 12 13 14 15 16 17 18 19 20 21
000
FTUS41 KLWX 240500
TAFIAD
TAF
KIAD 240520Z 2406/2512 32008KT P6SM SKC
     FM241300 32008G16KT P6SM FEW250
     FM242100 33005KT P6SM SCT250
     FM250000 VRB03KT P6SM SCT250
     FM250900 13004KT P6SM BKN130=

USA.gov is the U.S. government's official web portal to all federal, state and local government web resources and services.